KSDF Airport Diagram

We have created a template for each of the higher traffic airports in the vZID airspace. They include KCMH, KCRW, KCVG, KDAY, KIND, KLEX and KSDF. You wil find usefull information including the airport diagram, weather, and specific airport procedures.

KSDF Weather

[Source: ADDS]
METAR
KSDF 181756Z VRB05KT 10SM BKN048 BKN250 31/17 A3007 RMK AO2 SLP176 T03060167 10311 20189 56005 =
KSDF 181734Z 1818/1924 07006KT P6SM SCT050 FM190300 09004KT P6SM FEW050 FEW250 FM191200 18008KT P6SM SCT050
TAF
KSDF 181734Z 1818/1924 07006KT P6SM SCT050 FM190300 09004KT P6SM FEW050 FEW250 FM191200 18008KT P6SM SCT050 =

KSDF Operations

Calm Wind Configuration is runways 17L and 17R.

Runway 17L typically departs north and east.

Runway 17R typicall departs south and west.

 

JSN Epic template designed by JoomlaShine.com